ADDS TAF Board (Experimental) INFO Settings
IDs: Format: Expanded Condensed

KMSP - Minneapolis-St Paul, MN, US

Issued at 1739 UTC 11 Feb 2016
Updated at: 1905 UTC 11 Feb 2016
Time1853Z 11/20Z 11/21Z 11/22Z 11/23Z 12/00Z 12/01Z 12/02Z 12/03Z 12/04Z 12/05Z 12/06Z 12/07Z 12/08Z
Type OBS PRVL PRVL PRVL PRVL PRVL PRVL PRVL PRVL PRVL PRVL PRVL PRVL PRVL
VIS 10 >6 >6 >6 >6 >6 >6 >6 >6 >6 >6 >6 >6 >6
CIG 60 50 50 50 50 50 50 50 25 25 25 25 25 50
Cover OVC OVC OVC OVC OVC OVC OVC OVC OVC OVC OVC OVC OVC BKN
FltCat VFR VFR VFR VFR VFR VFR VFR VFR MVFR MVFR MVFR MVFR MVFR VFR
WX -- -- -- -- -- -- -- -- -- -- -- -- -- --
WDir 220 200 200 200 200 200 200 200 290 290 290 290 290 310
WSpd 7 5 5 5 5 5 5 5 6 6 6 6 6 8
WGst -- -- -- -- -- -- -- -- -- -- -- -- -- --
R04/22
XWnd -1 -2 -2 -2 -2 -2 -2 -2 5 5 5 5 5 8
HWnd -7 -5 -5 -5 -5 -5 -5 -5 -3 -3 -3 -3 -3 -1
R12/30
XWnd -7 -5 -5 -5 -5 -5 -5 -5 -1 -1 -1 -1 -1 1
HWnd -1 1 1 1 1 1 1 1 -6 -6 -6 -6 -6 -8
R17/35
XWnd -5 -3 -3 -3 -3 -3 -3 -3 -5 -5 -5 -5 -5 -5
HWnd 4 4 4 4 4 4 4 4 -3 -3 -3 -3 -3 -6

NOTE: TEMPO conditions in [brackets]. Keep in mind TEMPO conditions might be better (lower impact) than prevailing conditions.

Raw TAF
KMSP 111739Z 1118/1224 20005KT P6SM OVC050
  FM120300 29006KT P6SM OVC025
  FM120800 31008KT P6SM BKN050
  FM121200 32013G20KT P6SM SKC


Raw METAR
KMSP 111853Z 22007KT 10SM OVC060 M09/M20 A3028 RMK AO2 SLP273 T10941200
KMSP 111753Z 20004KT 10SM OVC070 M11/M20 A3031 RMK AO2 SLP281 4/002 T11061200 11106 21161 58007
KMSP 111653Z 16003KT 10SM FEW075 SCT250 M12/M20 A3033 RMK AO2 SLP288 T11171200

METAR Board
Radar Display
Forecast Discussion

TAF Board Legend

Potential Impact
Threat None Slight Moderate High
Visibility (sm) ≥5.1 5.1>X≥3 3>X≥1 <1
Ceiling (100 ft) ≥30.1 30.1>X≥10 10>X≥5 <5
Wind Speed (kt) <10 10≤X<20 20≤X<30 ≥30
Wind Gust (kt) <15 15≤X<25 25≤X<35 ≥35
Weather No Wx Reported VCTS,-TS,-FZRA,SN TS,FZRA +TS,+FZRA,+SN